Time;durP1;ratioP1;P1;durP2;ratioP2;P2;SDS_P1;SDS_P2;PMS_P1;PMS_P2;Temp;Humidity;BMP_temperature;BMP_pressure;BME280_temperature;BME280_humidity;BME280_pressure;Samples;Min_cycle;Max_cycle;Signal;HPM_P1;HPM_P2
2023/08/02 00:01:45;;;;;;;;;;;;;;;17.21;45.50;99432.94;4889501;28;99851;-71
2023/08/02 00:04:13;;;;;;;;;;;;;;;17.20;45.54;99431.34;4893415;28;98359;-73
2023/08/02 00:06:39;;;;;;;;;;;;;;;17.19;45.57;99444.16;4901200;28;97898;-71
2023/08/02 00:09:07;;;;;;;;;;;;;;;17.18;45.41;99439.88;4890072;28;98382;-71
2023/08/02 00:11:33;;;;;;;;;;;;;;;17.14;45.42;99428.84;4849528;28;98255;-71
2023/08/02 00:13:59;;;;;;;;;;;;;;;17.13;45.47;99431.88;4897377;28;98182;-72
2023/08/02 00:16:26;;;;;;;;;;;;;;;17.12;45.46;99422.13;4908193;28;98100;-71
2023/08/02 00:18:53;;;;;;;;;;;;;;;17.09;45.43;99431.75;4910361;28;98245;-72
2023/08/02 00:21:20;;;;;;;;;;;;;;;17.10;45.50;99429.84;4891050;28;98380;-71
2023/08/02 00:23:47;;;;;;;;;;;;;;;17.10;45.34;99427.13;4886946;28;100056;-72
2023/08/02 00:26:13;;;;;;;;;;;;;;;17.09;45.62;99422.81;4914663;28;98134;-72
2023/08/02 00:28:40;;;;;;;;;;;;;;;17.07;45.40;99434.03;4896967;28;97877;-72
2023/08/02 00:31:06;;;;;;;;;;;;;;;17.05;45.46;99428.13;4903239;28;98393;-71
2023/08/02 00:33:33;;;;;;;;;;;;;;;17.04;45.44;99431.97;4886033;28;98296;-71
2023/08/02 00:35:59;;;;;;;;;;;;;;;17.03;45.46;99433.13;4890012;28;97971;-71
2023/08/02 00:38:26;;;;;;;;;;;;;;;17.03;45.86;99429.59;4890763;28;98131;-71
2023/08/02 00:40:52;;;;;;;;;;;;;;;17.02;45.53;99428.03;4908590;28;97976;-71
2023/08/02 00:43:19;;;;;;;;;;;;;;;17.00;45.48;99433.00;4898591;28;98202;-72
2023/08/02 00:45:45;;;;;;;;;;;;;;;16.98;45.56;99433.34;4856962;28;97968;-71
2023/08/02 00:48:12;;;;;;;;;;;;;;;16.97;45.51;99437.16;4890050;28;101700;-72
2023/08/02 00:50:38;;;;;;;;;;;;;;;16.93;45.56;99434.31;4891367;28;97982;-71
2023/08/02 00:53:05;;;;;;;;;;;;;;;16.91;45.47;99435.78;4892686;28;98301;-71
2023/08/02 00:55:31;;;;;;;;;;;;;;;16.88;45.66;99431.81;4906974;28;97970;-71
2023/08/02 00:57:59;;;;;;;;;;;;;;;16.88;45.46;99434.53;4890034;28;98080;-72
2023/08/02 01:00:27;;;;;;;;;;;;;;;16.87;45.52;99435.66;4906108;28;99177;-71
2023/08/02 01:02:54;;;;;;;;;;;;;;;16.87;45.50;99434.88;4908530;28;98061;-71
2023/08/02 01:05:22;;;;;;;;;;;;;;;16.86;45.69;99431.34;4902158;28;97912;-71
2023/08/02 01:07:50;;;;;;;;;;;;;;;16.86;45.51;99428.63;4886476;28;98053;-72
2023/08/02 01:10:42;;;;;;;;;;;;;;;16.87;45.56;99435.66;4885246;28;98339;-72
2023/08/02 01:13:09;;;;;;;;;;;;;;;16.88;45.62;99439.19;4879827;28;98087;-71
2023/08/02 01:15:35;;;;;;;;;;;;;;;16.87;45.58;99432.16;4882787;28;98107;-71
2023/08/02 01:18:01;;;;;;;;;;;;;;;16.88;45.53;99433.72;4883673;28;98365;-72
2023/08/02 01:20:27;;;;;;;;;;;;;;;16.87;45.57;99432.94;4881866;28;98851;-71
2023/08/02 01:22:55;;;;;;;;;;;;;;;16.87;45.60;99430.22;4888011;28;98284;-71
2023/08/02 01:25:22;;;;;;;;;;;;;;;16.89;45.52;99429.88;4903178;28;98590;-72
2023/08/02 01:27:53;;;;;;;;;;;;;;;16.88;45.66;99420.91;4888395;28;97981;-71
2023/08/02 01:30:20;;;;;;;;;;;;;;;16.89;45.56;99438.03;4887044;28;99558;-71
2023/08/02 01:32:46;;;;;;;;;;;;;;;16.89;45.60;99430.66;4888134;28;98273;-71
2023/08/02 01:35:13;;;;;;;;;;;;;;;16.89;45.63;99438.03;4885831;28;99498;-71
2023/08/02 01:37:39;;;;;;;;;;;;;;;16.89;45.63;99432.59;4902495;28;97917;-71
2023/08/02 01:40:07;;;;;;;;;;;;;;;16.89;45.71;99435.31;4882391;28;100287;-71
2023/08/02 01:42:33;;;;;;;;;;;;;;;16.87;45.60;99441.09;4880175;28;98123;-71
2023/08/02 01:44:59;;;;;;;;;;;;;;;16.87;45.55;99424.78;4901201;28;99431;-71
2023/08/02 01:47:26;;;;;;;;;;;;;;;16.88;45.78;99431.00;4902725;28;99213;-71
2023/08/02 01:49:52;;;;;;;;;;;;;;;16.86;45.67;99431.34;4897655;28;98496;-71
2023/08/02 01:52:19;;;;;;;;;;;;;;;16.86;45.58;99425.91;4890334;28;97999;-71
2023/08/02 01:54:47;;;;;;;;;;;;;;;16.86;45.72;99428.63;4901808;28;98144;-71
2023/08/02 01:57:14;;;;;;;;;;;;;;;16.86;45.62;99434.09;4883413;28;98212;-71
2023/08/02 01:59:41;;;;;;;;;;;;;;;16.87;45.67;99429.44;4918171;28;98620;-71
2023/08/02 02:02:09;;;;;;;;;;;;;;;16.85;45.64;99429.75;4882990;28;98232;-71
2023/08/02 02:04:35;;;;;;;;;;;;;;;16.88;45.74;99431.00;4885328;28;97902;-71
2023/08/02 02:07:02;;;;;;;;;;;;;;;16.87;45.61;99430.22;4886813;28;98253;-71
2023/08/02 02:09:29;;;;;;;;;;;;;;;16.86;45.61;99427.84;4884194;28;101119;-72
2023/08/02 02:11:56;;;;;;;;;;;;;;;16.86;45.76;99423.19;4886821;28;98243;-71
2023/08/02 02:14:24;;;;;;;;;;;;;;;16.86;45.76;99430.56;4890798;28;98047;-71
2023/08/02 02:16:50;;;;;;;;;;;;;;;16.85;45.62;99426.22;4886063;28;97895;-71
2023/08/02 02:19:16;;;;;;;;;;;;;;;16.85;45.79;99428.94;4885158;28;100531;-71
2023/08/02 02:21:43;;;;;;;;;;;;;;;16.86;45.69;99428.63;4888110;28;97848;-71
2023/08/02 02:24:09;;;;;;;;;;;;;;;16.86;45.74;99428.63;4887180;28;98118;-71
2023/08/02 02:26:36;;;;;;;;;;;;;;;16.88;45.74;99429.09;4889559;28;98062;-71
2023/08/02 02:29:02;;;;;;;;;;;;;;;16.89;45.61;99421.72;4889893;28;98275;-71
2023/08/02 02:31:29;;;;;;;;;;;;;;;16.91;45.69;99425.69;4890888;28;98062;-71
2023/08/02 02:33:55;;;;;;;;;;;;;;;16.94;45.60;99424.25;4897439;28;98204;-71
2023/08/02 02:36:21;;;;;;;;;;;;;;;16.96;45.73;99418.47;4887802;28;98080;-71
2023/08/02 02:38:48;;;;;;;;;;;;;;;16.99;45.69;99425.97;4907355;28;98454;-72
2023/08/02 02:41:14;;;;;;;;;;;;;;;17.00;45.60;99422.88;4887579;28;97977;-72
2023/08/02 02:43:43;;;;;;;;;;;;;;;17.03;45.61;99421.44;4887137;28;98250;-72
2023/08/02 02:46:09;;;;;;;;;;;;;;;17.03;45.73;99411.34;4889851;28;99124;-71
2023/08/02 02:48:35;;;;;;;;;;;;;;;17.05;45.60;99417.22;4846304;28;99522;-72
2023/08/02 02:51:02;;;;;;;;;;;;;;;17.07;45.52;99409.53;4886929;28;98186;-71
2023/08/02 02:53:28;;;;;;;;;;;;;;;17.09;45.77;99407.25;4904747;28;98207;-71
2023/08/02 02:55:56;;;;;;;;;;;;;;;17.10;45.67;99414.31;4874582;28;98166;-71
2023/08/02 02:58:22;;;;;;;;;;;;;;;17.12;45.65;99408.53;4881765;28;97989;-71
2023/08/02 03:00:48;;;;;;;;;;;;;;;17.13;45.66;99401.94;4902742;28;98412;-72
2023/08/02 03:03:14;;;;;;;;;;;;;;;17.13;45.66;99400.03;4887176;28;98147;-72
2023/08/02 03:05:41;;;;;;;;;;;;;;;17.15;45.61;99400.47;4892307;28;98150;-72
2023/08/02 03:08:08;;;;;;;;;;;;;;;17.16;45.60;99402.06;4909377;28;98975;-71
2023/08/02 03:10:34;;;;;;;;;;;;;;;17.17;45.62;99402.84;4885509;28;97836;-72
2023/08/02 03:13:01;;;;;;;;;;;;;;;17.19;45.61;99400.59;4906282;28;98165;-70
2023/08/02 03:15:27;;;;;;;;;;;;;;;17.20;45.65;99404.91;4886209;28;98022;-71
2023/08/02 03:17:53;;;;;;;;;;;;;;;17.21;45.54;99405.69;4883583;28;98619;-71
2023/08/02 03:20:20;;;;;;;;;;;;;;;17.22;45.71;99408.09;4901715;28;98071;-71
2023/08/02 03:22:47;;;;;;;;;;;;;;;17.24;45.67;99399.59;4887778;28;98050;-71
2023/08/02 03:25:13;;;;;;;;;;;;;;;17.25;45.73;99401.19;4890604;28;97906;-72
2023/08/02 03:27:40;;;;;;;;;;;;;;;17.26;45.70;99403.56;4857830;28;97962;-71
2023/08/02 03:30:09;;;;;;;;;;;;;;;17.26;45.68;99406.31;4887475;28;98161;-72
2023/08/02 03:32:35;;;;;;;;;;;;;;;17.25;45.46;99402.00;4888435;28;98029;-71
2023/08/02 03:35:02;;;;;;;;;;;;;;;17.25;45.53;99402.00;4892341;28;99240;-72
2023/08/02 03:37:30;;;;;;;;;;;;;;;17.26;45.56;99410.97;4891737;28;98733;-71
2023/08/02 03:39:57;;;;;;;;;;;;;;;17.25;45.74;99415.63;4856641;28;98439;-72
2023/08/02 03:42:23;;;;;;;;;;;;;;;17.26;45.57;99414.47;4906822;28;98028;-72
2023/08/02 03:44:51;;;;;;;;;;;;;;;17.27;45.63;99412.53;4883268;28;98266;-71
2023/08/02 03:47:18;;;;;;;;;;;;;;;17.27;45.56;99418.78;4890684;28;98300;-72
2023/08/02 03:49:44;;;;;;;;;;;;;;;17.28;45.66;99422.28;4850837;28;99833;-71
2023/08/02 03:52:11;;;;;;;;;;;;;;;17.30;45.68;99420.03;4918219;28;98264;-72
2023/08/02 03:54:38;;;;;;;;;;;;;;;17.31;45.51;99416.97;4887854;28;98302;-71
2023/08/02 03:57:04;;;;;;;;;;;;;;;17.31;45.71;99416.97;4868683;28;98345;-71
2023/08/02 03:59:30;;;;;;;;;;;;;;;17.33;45.55;99417.44;4889357;28;98340;-72
2023/08/02 04:01:57;;;;;;;;;;;;;;;17.34;45.55;99415.50;4897444;28;98456;-71
2023/08/02 04:04:24;;;;;;;;;;;;;;;17.35;45.55;99411.66;4901649;28;98503;-71
2023/08/02 04:06:50;;;;;;;;;;;;;;;17.38;45.75;99419.16;4886581;28;98728;-70
2023/08/02 04:09:16;;;;;;;;;;;;;;;17.39;45.43;99418.81;4904399;28;98687;-71
2023/08/02 04:11:43;;;;;;;;;;;;;;;17.41;45.54;99418.47;4887686;28;97975;-72
2023/08/02 04:14:09;;;;;;;;;;;;;;;17.42;45.46;99428.22;4898197;28;98593;-71
2023/08/02 04:16:35;;;;;;;;;;;;;;;17.42;45.51;99426.31;4902684;28;98225;-72
2023/08/02 04:19:02;;;;;;;;;;;;;;;17.42;45.55;99431.75;4882880;28;98986;-72
2023/08/02 04:21:28;;;;;;;;;;;;;;;17.42;45.69;99444.56;4891064;28;97957;-70
2023/08/02 04:23:55;;;;;;;;;;;;;;;17.42;45.57;99437.19;4888705;28;98171;-72
2023/08/02 04:26:21;;;;;;;;;;;;;;;17.46;45.68;99436.53;4903032;28;98177;-71
2023/08/02 04:28:49;;;;;;;;;;;;;;;17.46;45.68;99439.25;4903758;28;100018;-72
2023/08/02 04:31:16;;;;;;;;;;;;;;;17.49;45.49;99438.56;4905776;28;98151;-72
2023/08/02 04:33:43;;;;;;;;;;;;;;;17.50;45.51;99435.50;4903961;28;97955;-72
2023/08/02 04:36:09;;;;;;;;;;;;;;;17.53;45.64;99440.28;4900945;28;97927;-72
2023/08/02 04:38:36;;;;;;;;;;;;;;;17.53;45.48;99439.50;4894973;28;98026;-71
2023/08/02 04:41:04;;;;;;;;;;;;;;;17.52;45.49;99433.22;4887005;28;98292;-72
2023/08/02 04:43:30;;;;;;;;;;;;;;;17.55;45.57;99432.56;4888336;28;98118;-72
2023/08/02 04:45:57;;;;;;;;;;;;;;;17.64;45.48;99430.53;4890100;28;98156;-72
2023/08/02 04:48:24;;;;;;;;;;;;;;;17.77;45.19;99436.03;4887164;28;97879;-72
2023/08/02 04:50:51;;;;;;;;;;;;;;;17.83;45.28;99431.94;4883488;28;98760;-70
2023/08/02 04:53:18;;;;;;;;;;;;;;;17.89;45.29;99422.41;4901614;28;99071;-71
2023/08/02 04:55:48;;;;;;;;;;;;;;;18.02;45.24;99428.63;4902251;28;98094;-72
2023/08/02 04:58:16;;;;;;;;;;;;;;;18.09;45.16;99426.16;4901360;28;98570;-71
2023/08/02 05:00:43;;;;;;;;;;;;;;;18.09;45.16;99423.41;4900287;28;99374;-71
2023/08/02 05:03:09;;;;;;;;;;;;;;;18.09;45.09;99429.66;4887015;28;98153;-71
2023/08/02 05:05:36;;;;;;;;;;;;;;;18.17;45.19;99430.69;4897921;28;98153;-72
2023/08/02 05:08:02;;;;;;;;;;;;;;;18.27;45.11;99430.19;4899910;28;98015;-71
2023/08/02 05:10:29;;;;;;;;;;;;;;;18.49;44.77;99430.84;4877227;28;98181;-72
2023/08/02 05:12:56;;;;;;;;;;;;;;;18.70;44.61;99431.50;4881616;28;98158;-72
2023/08/02 05:15:22;;;;;;;;;;;;;;;18.80;44.70;99424.75;4876909;28;100154;-72
2023/08/02 05:17:49;;;;;;;;;;;;;;;18.83;44.60;99424.06;4882644;28;100137;-71
2023/08/02 05:20:16;;;;;;;;;;;;;;;18.95;44.69;99428.69;4876964;28;98323;-71
2023/08/02 05:22:42;;;;;;;;;;;;;;;19.19;44.35;99425.84;4900677;28;98242;-72
2023/08/02 05:25:09;;;;;;;;;;;;;;;19.28;44.30;99420.19;4881886;28;98687;-72
2023/08/02 05:27:36;;;;;;;;;;;;;;;19.37;44.44;99407.97;4886798;28;97934;-72
2023/08/02 05:30:02;;;;;;;;;;;;;;;19.40;44.42;99400.22;4916757;28;98005;-72
2023/08/02 05:32:29;;;;;;;;;;;;;;;19.63;44.29;99401.22;4899425;28;98090;-72
2023/08/02 05:34:55;;;;;;;;;;;;;;;19.60;44.36;99402.66;4900506;28;97941;-71
2023/08/02 05:37:22;;;;;;;;;;;;;;;19.61;44.34;99407.03;4885564;28;98257;-71
2023/08/02 05:39:48;;;;;;;;;;;;;;;19.52;44.52;99409.09;4879419;28;98260;-72
2023/08/02 05:42:15;;;;;;;;;;;;;;;19.70;44.31;99411.53;4887297;28;98620;-71
2023/08/02 05:44:41;;;;;;;;;;;;;;;20.01;43.84;99405.25;4883404;28;98210;-72
2023/08/02 05:47:07;;;;;;;;;;;;;;;20.15;43.95;99405.53;4879741;28;98644;-72
2023/08/02 05:49:34;;;;;;;;;;;;;;;20.06;44.05;99400.28;4883149;28;98086;-72
2023/08/02 05:52:01;;;;;;;;;;;;;;;20.16;44.03;99398.94;4901083;28;98299;-72
2023/08/02 05:54:27;;;;;;;;;;;;;;;20.12;44.19;99387.09;4879220;28;99977;-71
2023/08/02 05:56:53;;;;;;;;;;;;;;;20.22;44.25;99396.72;4898025;28;98243;-72
2023/08/02 05:59:20;;;;;;;;;;;;;;;20.42;43.94;99395.59;4880697;28;98959;-71
2023/08/02 06:01:46;;;;;;;;;;;;;;;20.63;43.61;99397.19;4845778;28;98718;-71
2023/08/02 06:04:13;;;;;;;;;;;;;;;20.75;43.92;99388.84;4884032;28;98536;-72
2023/08/02 06:06:40;;;;;;;;;;;;;;;20.82;43.65;99389.78;4881469;28;98015;-72
2023/08/02 06:09:07;;;;;;;;;;;;;;;20.85;43.75;99388.28;4863151;28;99827;-72
2023/08/02 06:11:34;;;;;;;;;;;;;;;20.80;43.94;99392.09;4906461;28;98117;-72
2023/08/02 06:14:00;;;;;;;;;;;;;;;20.89;43.83;99389.13;4887152;28;98514;-73
2023/08/02 06:16:28;;;;;;;;;;;;;;;21.16;43.61;99391.97;4888846;28;98163;-72
2023/08/02 06:18:54;;;;;;;;;;;;;;;21.51;43.29;99380.88;4863241;28;99868;-72
2023/08/02 06:21:22;;;;;;;;;;;;;;;21.68;43.09;99396.81;4871830;28;98395;-72
2023/08/02 06:23:51;;;;;;;;;;;;;;;21.43;43.78;99388.19;4869156;28;97933;-72
2023/08/02 06:26:19;;;;;;;;;;;;;;;21.40;43.74;99383.44;4887292;28;98106;-73
2023/08/02 06:28:45;;;;;;;;;;;;;;;21.87;43.28;99386.91;4870328;28;99657;-72
2023/08/02 06:31:14;;;;;;;;;;;;;;;22.11;42.87;99394.72;4885674;28;99085;-72
2023/08/02 06:33:42;;;;;;;;;;;;;;;22.36;42.86;99391.53;4884403;28;101126;-72
2023/08/02 06:36:08;;;;;;;;;;;;;;;22.57;42.92;99396.53;4884625;28;99148;-71
2023/08/02 06:38:35;;;;;;;;;;;;;;;22.45;42.97;99400.31;4869999;28;98301;-72
2023/08/02 06:41:02;;;;;;;;;;;;;;;22.34;43.31;99402.13;4896787;28;98416;-72
2023/08/02 06:43:28;;;;;;;;;;;;;;;22.24;43.32;99398.88;4878503;28;98258;-71
2023/08/02 06:45:54;;;;;;;;;;;;;;;22.58;43.07;99403.59;4888883;28;98315;-73
2023/08/02 06:48:23;;;;;;;;;;;;;;;23.28;42.52;99408.34;4883086;28;98462;-69
2023/08/02 06:50:50;;;;;;;;;;;;;;;23.59;42.22;99406.25;4881138;28;98166;-72
2023/08/02 06:53:16;;;;;;;;;;;;;;;23.24;43.11;99399.28;4903333;28;98102;-70
2023/08/02 06:55:42;;;;;;;;;;;;;;;22.92;43.01;99407.97;4901967;28;98646;-71
2023/08/02 06:58:08;;;;;;;;;;;;;;;22.94;42.84;99407.59;4884370;28;99580;-70
2023/08/02 07:00:35;;;;;;;;;;;;;;;22.73;43.31;99395.16;4903152;28;98215;-71
2023/08/02 07:03:01;;;;;;;;;;;;;;;22.49;43.81;99395.66;4885914;28;99949;-70
2023/08/02 07:05:29;;;;;;;;;;;;;;;22.43;43.35;99397.13;4867852;28;98053;-72
2023/08/02 07:07:56;;;;;;;;;;;;;;;22.84;43.10;99389.00;4885507;28;98319;-72
2023/08/02 07:10:23;;;;;;;;;;;;;;;22.82;43.18;99388.59;4901922;28;98408;-73
2023/08/02 07:12:51;;;;;;;;;;;;;;;22.60;43.58;99385.59;4861203;28;98586;-73
2023/08/02 07:15:17;;;;;;;;;;;;;;;22.46;43.71;99377.97;4883996;28;98959;-73
2023/08/02 07:17:44;;;;;;;;;;;;;;;22.52;43.67;99381.97;4868619;28;98240;-71
2023/08/02 07:20:11;;;;;;;;;;;;;;;22.60;43.43;99371.88;4887436;28;98186;-72
2023/08/02 07:22:41;;;;;;;;;;;;;;;22.64;43.31;99367.22;4869486;28;98100;-72
2023/08/02 07:25:08;;;;;;;;;;;;;;;22.69;43.70;99369.63;4905101;28;100090;-71
2023/08/02 07:27:35;;;;;;;;;;;;;;;22.68;43.52;99365.28;4902317;28;98300;-72
2023/08/02 07:30:03;;;;;;;;;;;;;;;22.72;43.60;99362.59;4867800;28;98394;-72
2023/08/02 07:32:32;;;;;;;;;;;;;;;22.85;43.19;99361.16;4886726;28;98272;-72
2023/08/02 07:34:59;;;;;;;;;;;;;;;22.97;43.49;99352.69;4897571;28;98055;-72
2023/08/02 07:37:26;;;;;;;;;;;;;;;22.91;43.51;99356.13;4905499;28;98280;-72
2023/08/02 07:39:52;;;;;;;;;;;;;;;22.88;43.53;99354.13;4868820;28;98336;-72
2023/08/02 07:42:19;;;;;;;;;;;;;;;22.94;43.17;99352.63;4920207;28;98019;-73
2023/08/02 07:45:06;;;;;;;;;;;;;;;23.13;43.25;99337.91;4908887;28;97923;-73
2023/08/02 07:47:37;;;;;;;;;;;;;;;23.49;42.85;99331.53;4907704;28;99358;-72
2023/08/02 07:50:07;;;;;;;;;;;;;;;24.00;42.31;99327.97;4869359;28;99150;-72
2023/08/02 07:52:34;;;;;;;;;;;;;;;24.50;41.62;99330.19;4882321;28;98081;-72
2023/08/02 07:55:01;;;;;;;;;;;;;;;25.05;41.35;99329.16;4886370;28;98449;-72
2023/08/02 07:57:31;;;;;;;;;;;;;;;25.10;41.57;99321.28;4901073;28;98441;-72
2023/08/02 07:59:58;;;;;;;;;;;;;;;25.62;41.14;99315.38;4908618;28;99215;-72
2023/08/02 08:02:25;;;;;;;;;;;;;;;26.33;40.35;99323.50;4875732;28;98278;-72
2023/08/02 08:04:55;;;;;;;;;;;;;;;26.20;41.03;99325.91;4889819;28;99063;-73
2023/08/02 08:07:22;;;;;;;;;;;;;;;25.61;42.02;99341.38;4887435;28;98244;-73
2023/08/02 08:09:51;;;;;;;;;;;;;;;25.17;42.51;99334.31;4870862;28;98873;-72
2023/08/02 08:12:18;;;;;;;;;;;;;;;25.20;42.53;99326.03;4904627;28;98164;-72
2023/08/02 08:14:45;;;;;;;;;;;;;;;25.90;41.54;99328.38;4873770;28;98221;-72
2023/08/02 08:17:11;;;;;;;;;;;;;;;25.86;41.53;99336.66;4895039;28;99199;-72
2023/08/02 08:19:37;;;;;;;;;;;;;;;25.89;41.74;99330.34;4868790;28;98530;-72
2023/08/02 08:22:05;;;;;;;;;;;;;;;27.05;40.50;99332.22;4889194;28;99943;-72
2023/08/02 08:24:31;;;;;;;;;;;;;;;27.92;39.83;99318.47;4919868;28;98346;-72
2023/08/02 08:26:58;;;;;;;;;;;;;;;30.62;37.35;99320.13;4900130;28;100019;-73
2023/08/02 08:29:26;;;;;;;;;;;;;;;33.06;35.28;99321.59;4901586;28;98393;-73
2023/08/02 08:31:52;;;;;;;;;;;;;;;35.06;34.60;99328.44;4903045;28;98051;-73
2023/08/02 08:34:21;;;;;;;;;;;;;;;36.37;34.22;99340.81;4905360;28;98826;-72
2023/08/02 08:36:47;;;;;;;;;;;;;;;35.84;35.48;99332.78;4886991;28;98423;-73
2023/08/02 08:39:15;;;;;;;;;;;;;;;36.25;35.31;99332.59;4900224;28;98107;-72
2023/08/02 08:41:41;;;;;;;;;;;;;;;37.09;35.31;99329.84;4901685;28;99238;-73
2023/08/02 08:44:08;;;;;;;;;;;;;;;35.33;37.17;99313.72;4903942;28;98486;-72
2023/08/02 08:46:35;;;;;;;;;;;;;;;35.55;37.00;99304.44;4892038;28;98351;-71
2023/08/02 08:49:03;;;;;;;;;;;;;;;33.65;38.76;99294.91;4892845;28;102069;-73
2023/08/02 08:51:36;;;;;;;;;;;;;;;34.05;38.66;99293.53;4886997;28;99063;-72
2023/08/02 08:54:05;;;;;;;;;;;;;;;34.97;37.30;99296.78;4907765;28;98213;-72
2023/08/02 08:56:32;;;;;;;;;;;;;;;35.14;37.18;99293.31;4868354;28;99465;-72
2023/08/02 08:59:01;;;;;;;;;;;;;;;34.64;37.79;99294.50;4875796;28;98588;-72
2023/08/02 09:01:27;;;;;;;;;;;;;;;34.42;38.14;99280.53;4883159;28;98408;-72
2023/08/02 09:03:56;;;;;;;;;;;;;;;34.93;37.67;99277.34;4870076;28;98367;-72
2023/08/02 09:06:23;;;;;;;;;;;;;;;33.98;38.76;99268.63;4901942;28;98014;-72
2023/08/02 09:08:49;;;;;;;;;;;;;;;34.09;38.72;99271.81;4888635;28;98063;-73
2023/08/02 09:11:16;;;;;;;;;;;;;;;33.71;38.72;99265.16;4892700;28;98111;-72
2023/08/02 09:13:43;;;;;;;;;;;;;;;33.45;38.99;99264.50;4868885;28;98145;-72
2023/08/02 09:16:10;;;;;;;;;;;;;;;33.64;38.88;99259.03;4901447;28;98258;-72
2023/08/02 09:18:44;;;;;;;;;;;;;;;33.40;38.66;99262.22;4916151;28;98319;-74
2023/08/02 09:21:15;;;;;;;;;;;;;;;33.51;38.75;99267.47;4879213;28;98225;-73
2023/08/02 09:24:07;;;;;;;;;;;;;;;32.56;39.65;99253.41;4888743;28;98266;-72
2023/08/02 09:26:34;;;;;;;;;;;;;;;31.85;40.02;99249.94;4893796;28;98272;-72
2023/08/02 09:29:04;;;;;;;;;;;;;;;31.55;40.28;99243.56;4869248;28;98420;-74
2023/08/02 09:31:32;;;;;;;;;;;;;;;31.23;40.37;99247.16;4871633;28;98243;-72
2023/08/02 09:33:58;;;;;;;;;;;;;;;31.14;40.45;99249.78;4889599;28;98197;-71
2023/08/02 09:36:28;;;;;;;;;;;;;;;32.14;39.01;99239.50;4887252;28;99030;-72
2023/08/02 09:39:18;;;;;;;;;;;;;;;34.59;36.61;99237.16;4909920;28;98390;-72
2023/08/02 09:41:45;;;;;;;;;;;;;;;33.47;37.94;99234.09;4901097;28;98804;-72
2023/08/02 09:44:20;;;;;;;;;;;;;;;32.56;39.36;99235.91;4900519;28;99949;-72
2023/08/02 09:46:47;;;;;;;;;;;;;;;33.01;38.73;99234.88;4888703;28;98428;-72
2023/08/02 09:49:18;;;;;;;;;;;;;;;33.72;37.86;99240.81;4908011;28;99554;-72
2023/08/02 09:51:45;;;;;;;;;;;;;;;32.71;39.21;99225.88;4906005;28;98399;-72
2023/08/02 09:54:14;;;;;;;;;;;;;;;32.00;39.73;99228.81;4871124;28;103135;-72
2023/08/02 09:56:41;;;;;;;;;;;;;;;31.49;40.36;99220.28;4901909;28;98289;-72
2023/08/02 09:59:08;;;;;;;;;;;;;;;31.22;40.37;99207.44;4903992;28;98184;-72
2023/08/02 10:01:35;;;;;;;;;;;;;;;30.91;40.45;99198.69;4901421;28;98049;-72
2023/08/02 10:04:04;;;;;;;;;;;;;;;30.61;40.71;99196.22;4870531;28;98010;-72
2023/08/02 10:06:38;;;;;;;;;;;;;;;34.28;36.44;99197.22;4905056;28;98089;-71
2023/08/02 10:09:07;;;;;;;;;;;;;;;37.10;33.79;99193.03;4901261;28;98935;-72
2023/08/02 10:11:56;;;;;;;;;;;;;;;35.75;35.71;99191.88;4886241;28;98375;-72
2023/08/02 10:14:23;;;;;;;;;;;;;;;34.38;37.47;99191.19;4882554;28;100457;-73
2023/08/02 10:16:50;;;;;;;;;;;;;;;33.33;38.78;99189.91;4890309;28;98185;-71
2023/08/02 10:19:18;;;;;;;;;;;;;;;33.14;38.60;99174.25;4870122;28;99061;-72
2023/08/02 10:21:45;;;;;;;;;;;;;;;31.94;39.45;99169.28;4882954;28;98329;-72
2023/08/02 10:24:13;;;;;;;;;;;;;;;35.17;35.87;99185.19;4867821;28;99296;-72
2023/08/02 10:26:39;;;;;;;;;;;;;;;32.31;38.96;99162.19;4889613;28;98252;-72
2023/08/02 10:29:06;;;;;;;;;;;;;;;32.03;39.68;99161.06;4887392;28;98176;-72
2023/08/02 10:31:33;;;;;;;;;;;;;;;32.09;39.38;99161.28;4887608;28;98002;-72
2023/08/02 10:33:59;;;;;;;;;;;;;;;31.45;39.92;99155.56;4906649;28;98974;-73
2023/08/02 10:36:26;;;;;;;;;;;;;;;30.93;40.44;99148.16;4887315;28;99667;-72
2023/08/02 10:38:53;;;;;;;;;;;;;;;31.87;39.00;99147.22;4865303;28;98232;-72
2023/08/02 10:41:27;;;;;;;;;;;;;;;32.17;38.90;99146.69;4885207;28;98266;-72
2023/08/02 10:43:53;;;;;;;;;;;;;;;31.55;39.18;99140.56;4907542;28;98228;-73
2023/08/02 10:46:24;;;;;;;;;;;;;;;31.22;39.47;99128.75;4915561;28;98234;-73
2023/08/02 10:48:52;;;;;;;;;;;;;;;30.76;39.85;99123.19;4870166;28;98311;-73
2023/08/02 10:51:28;;;;;;;;;;;;;;;30.60;40.17;99119.59;4885748;28;100114;-72
2023/08/02 10:54:19;;;;;;;;;;;;;;;30.39;40.28;99116.16;4919512;28;100030;-73
2023/08/02 10:56:58;;;;;;;;;;;;;;;30.29;40.33;99114.41;4902139;28;98380;-72
2023/08/02 10:59:24;;;;;;;;;;;;;;;30.27;40.42;99114.06;4918371;28;97993;-71
2023/08/02 11:02:00;;;;;;;;;;;;;;;30.01;40.38;99105.47;4902361;28;98243;-72
2023/08/02 11:04:29;;;;;;;;;;;;;;;29.71;40.73;99109.34;4900372;28;98455;-72
2023/08/02 11:06:55;;;;;;;;;;;;;;;29.66;40.73;99103.50;4903897;28;98045;-72
2023/08/02 11:09:31;;;;;;;;;;;;;;;29.62;40.74;99094.47;4919231;28;97954;-72
2023/08/02 11:12:07;;;;;;;;;;;;;;;29.73;40.46;99100.56;4874724;28;98075;-72
2023/08/02 11:14:33;;;;;;;;;;;;;;;29.90;40.11;99096.59;4885915;28;98562;-71
2023/08/02 11:16:59;;;;;;;;;;;;;;;29.70;40.15;99082.00;4892328;28;98092;-72
2023/08/02 11:19:28;;;;;;;;;;;;;;;29.27;40.41;99075.31;4888230;28;98765;-72
2023/08/02 11:21:55;;;;;;;;;;;;;;;29.02;40.82;99069.47;4887178;28;98741;-71
2023/08/02 11:24:22;;;;;;;;;;;;;;;28.94;40.76;99068.03;4871371;28;97978;-71
2023/08/02 11:26:55;;;;;;;;;;;;;;;28.97;40.34;99058.88;4905056;28;98349;-72
2023/08/02 11:29:21;;;;;;;;;;;;;;;28.90;40.09;99056.22;4871536;28;98212;-73
2023/08/02 11:31:48;;;;;;;;;;;;;;;28.99;40.12;99048.94;4902972;28;98810;-72
2023/08/02 11:34:18;;;;;;;;;;;;;;;28.87;40.03;99043.97;4907725;28;98052;-72
2023/08/02 11:36:48;;;;;;;;;;;;;;;30.19;38.70;99037.66;4884792;28;98217;-73
2023/08/02 11:39:21;;;;;;;;;;;;;;;30.62;38.77;99050.47;4888107;28;98210;-72
2023/08/02 11:42:02;;;;;;;;;;;;;;;30.56;38.78;99058.53;4906460;28;98258;-70
2023/08/02 11:44:29;;;;;;;;;;;;;;;30.04;39.41;99049.06;4904940;28;99029;-73
2023/08/02 11:46:57;;;;;;;;;;;;;;;29.95;39.35;99046.13;4905763;28;98490;-72
2023/08/02 11:49:24;;;;;;;;;;;;;;;29.92;38.91;99046.97;4879827;28;98472;-72
2023/08/02 11:51:52;;;;;;;;;;;;;;;29.76;39.22;99036.66;4872814;28;98261;-72
2023/08/02 11:54:19;;;;;;;;;;;;;;;29.50;39.26;99026.50;4906366;28;98864;-72
2023/08/02 11:56:46;;;;;;;;;;;;;;;29.45;39.71;99022.22;4889222;28;98737;-73
2023/08/02 11:59:13;;;;;;;;;;;;;;;29.31;39.57;99025.31;4908145;28;98751;-71
2023/08/02 12:01:44;;;;;;;;;;;;;;;29.06;39.87;99031.38;4907467;28;100116;-70
2023/08/02 12:04:11;;;;;;;;;;;;;;;28.78;39.90;99027.13;4887550;28;98725;-71
2023/08/02 12:06:50;;;;;;;;;;;;;;;28.63;39.61;99012.75;4890959;28;98323;-72
2023/08/02 12:09:17;;;;;;;;;;;;;;;28.55;40.05;99017.66;4904126;28;98215;-72
2023/08/02 12:11:45;;;;;;;;;;;;;;;28.43;39.70;99011.94;4888493;28;98244;-72
2023/08/02 12:14:12;;;;;;;;;;;;;;;28.30;39.57;99008.97;4889020;28;98160;-72
2023/08/02 12:16:43;;;;;;;;;;;;;;;28.15;39.97;99005.66;4872424;28;98406;-73
2023/08/02 12:19:12;;;;;;;;;;;;;;;28.12;39.71;98987.88;4922862;28;99937;-71
2023/08/02 12:21:38;;;;;;;;;;;;;;;28.08;39.60;98998.25;4870731;28;99410;-72
2023/08/02 12:24:17;;;;;;;;;;;;;;;27.79;40.07;98997.94;4905474;28;98058;-72
2023/08/02 12:26:44;;;;;;;;;;;;;;;27.70;40.15;98999.59;4864294;28;98312;-71
2023/08/02 12:29:23;;;;;;;;;;;;;;;27.56;40.02;98986.78;4901742;28;98131;-71
2023/08/02 12:31:53;;;;;;;;;;;;;;;27.29;40.22;98978.47;4899883;28;100826;-72
2023/08/02 12:34:19;;;;;;;;;;;;;;;27.34;40.23;98976.00;4903149;28;97996;-71
2023/08/02 12:36:48;;;;;;;;;;;;;;;27.21;40.22;98971.47;4887638;28;98335;-74
2023/08/02 12:39:15;;;;;;;;;;;;;;;26.78;40.30;98967.19;4889860;28;98531;-72
2023/08/02 12:41:41;;;;;;;;;;;;;;;26.36;40.85;98968.41;4873931;28;100921;-71
2023/08/02 12:44:07;;;;;;;;;;;;;;;26.09;40.69;98960.75;4888234;28;98125;-73
2023/08/02 12:46:34;;;;;;;;;;;;;;;26.04;40.79;98960.41;4891032;28;98197;-74
2023/08/02 12:49:02;;;;;;;;;;;;;;;26.12;40.69;98954.44;4869591;28;98054;-72